sensor_id;sensor_type;location;lat;lon;timestamp;P1;durP1;ratioP1;P2;durP2;ratioP2
23082;SDS011;11709;52.420;10.538;2022-08-19T00:03:12;19.00;;;11.08;;
23082;SDS011;11709;52.420;10.538;2022-08-19T00:07:15;16.15;;;10.72;;
23082;SDS011;11709;52.420;10.538;2022-08-19T00:11:18;15.60;;;11.10;;
23082;SDS011;11709;52.420;10.538;2022-08-19T00:15:21;16.10;;;10.80;;
23082;SDS011;11709;52.420;10.538;2022-08-19T00:19:24;15.60;;;11.25;;
23082;SDS011;11709;52.420;10.538;2022-08-19T00:23:26;17.87;;;11.50;;
23082;SDS011;11709;52.420;10.538;2022-08-19T00:27:29;17.12;;;11.57;;
23082;SDS011;11709;52.420;10.538;2022-08-19T00:31:31;17.60;;;11.83;;
23082;SDS011;11709;52.420;10.538;2022-08-19T00:35:34;14.73;;;10.72;;
23082;SDS011;11709;52.420;10.538;2022-08-19T00:39:38;15.65;;;11.03;;
23082;SDS011;11709;52.420;10.538;2022-08-19T00:43:41;20.23;;;11.78;;
23082;SDS011;11709;52.420;10.538;2022-08-19T00:47:44;14.33;;;11.03;;
23082;SDS011;11709;52.420;10.538;2022-08-19T00:51:48;16.05;;;10.85;;
23082;SDS011;11709;52.420;10.538;2022-08-19T00:55:53;17.75;;;10.88;;
23082;SDS011;11709;52.420;10.538;2022-08-19T00:59:57;20.40;;;11.20;;
23082;SDS011;11709;52.420;10.538;2022-08-19T01:04:03;14.00;;;11.03;;
23082;SDS011;11709;52.420;10.538;2022-08-19T01:08:06;16.05;;;10.80;;
23082;SDS011;11709;52.420;10.538;2022-08-19T01:12:09;13.05;;;10.93;;
23082;SDS011;11709;52.420;10.538;2022-08-19T01:16:12;13.70;;;10.78;;
23082;SDS011;11709;52.420;10.538;2022-08-19T01:20:18;14.05;;;10.00;;
23082;SDS011;11709;52.420;10.538;2022-08-19T01:24:21;14.90;;;10.35;;
23082;SDS011;11709;52.420;10.538;2022-08-19T01:28:25;15.60;;;10.38;;
23082;SDS011;11709;52.420;10.538;2022-08-19T01:32:29;14.63;;;10.68;;
23082;SDS011;11709;52.420;10.538;2022-08-19T01:36:33;14.78;;;10.63;;
23082;SDS011;11709;52.420;10.538;2022-08-19T01:40:38;12.35;;;9.88;;
23082;SDS011;11709;52.420;10.538;2022-08-19T01:44:42;17.67;;;10.32;;
23082;SDS011;11709;52.420;10.538;2022-08-19T01:48:46;15.60;;;10.23;;
23082;SDS011;11709;52.420;10.538;2022-08-19T01:52:48;14.50;;;10.03;;
23082;SDS011;11709;52.420;10.538;2022-08-19T01:56:51;13.25;;;10.13;;
23082;SDS011;11709;52.420;10.538;2022-08-19T02:00:57;11.68;;;9.63;;
23082;SDS011;11709;52.420;10.538;2022-08-19T02:04:59;13.30;;;9.93;;
23082;SDS011;11709;52.420;10.538;2022-08-19T02:09:02;14.23;;;9.88;;
23082;SDS011;11709;52.420;10.538;2022-08-19T02:13:06;17.55;;;11.00;;
23082;SDS011;11709;52.420;10.538;2022-08-19T02:17:09;18.20;;;10.08;;
23082;SDS011;11709;52.420;10.538;2022-08-19T02:21:12;14.73;;;10.28;;
23082;SDS011;11709;52.420;10.538;2022-08-19T02:25:16;12.23;;;8.93;;
23082;SDS011;11709;52.420;10.538;2022-08-19T02:29:18;12.63;;;9.50;;
23082;SDS011;11709;52.420;10.538;2022-08-19T02:33:21;13.20;;;10.40;;
23082;SDS011;11709;52.420;10.538;2022-08-19T02:37:23;14.10;;;10.32;;
23082;SDS011;11709;52.420;10.538;2022-08-19T02:41:44;14.53;;;9.83;;
23082;SDS011;11709;52.420;10.538;2022-08-19T02:45:47;15.30;;;9.65;;
23082;SDS011;11709;52.420;10.538;2022-08-19T02:49:51;15.63;;;10.30;;
23082;SDS011;11709;52.420;10.538;2022-08-19T02:53:53;16.73;;;10.55;;
23082;SDS011;11709;52.420;10.538;2022-08-19T02:57:56;17.52;;;9.60;;
23082;SDS011;11709;52.420;10.538;2022-08-19T03:01:58;17.35;;;10.30;;
23082;SDS011;11709;52.420;10.538;2022-08-19T03:06:06;13.28;;;9.38;;
23082;SDS011;11709;52.420;10.538;2022-08-19T03:10:13;14.47;;;9.33;;
23082;SDS011;11709;52.420;10.538;2022-08-19T03:14:16;14.78;;;9.63;;
23082;SDS011;11709;52.420;10.538;2022-08-19T03:18:18;13.98;;;9.30;;
23082;SDS011;11709;52.420;10.538;2022-08-19T03:22:21;15.85;;;9.75;;
23082;SDS011;11709;52.420;10.538;2022-08-19T03:26:23;16.82;;;9.93;;
23082;SDS011;11709;52.420;10.538;2022-08-19T03:30:26;17.92;;;9.68;;
23082;SDS011;11709;52.420;10.538;2022-08-19T03:34:30;17.82;;;10.23;;
23082;SDS011;11709;52.420;10.538;2022-08-19T03:38:35;13.48;;;9.93;;
23082;SDS011;11709;52.420;10.538;2022-08-19T03:42:39;14.70;;;9.95;;
23082;SDS011;11709;52.420;10.538;2022-08-19T03:46:42;18.48;;;9.78;;
23082;SDS011;11709;52.420;10.538;2022-08-19T03:50:45;14.03;;;9.93;;
23082;SDS011;11709;52.420;10.538;2022-08-19T03:54:48;13.90;;;9.15;;
23082;SDS011;11709;52.420;10.538;2022-08-19T03:58:51;17.40;;;10.53;;
23082;SDS011;11709;52.420;10.538;2022-08-19T04:02:54;17.52;;;10.30;;
23082;SDS011;11709;52.420;10.538;2022-08-19T04:06:57;15.83;;;9.83;;
23082;SDS011;11709;52.420;10.538;2022-08-19T04:11:00;15.60;;;10.43;;
23082;SDS011;11709;52.420;10.538;2022-08-19T04:15:02;16.05;;;9.88;;
23082;SDS011;11709;52.420;10.538;2022-08-19T04:19:06;12.82;;;9.68;;
23082;SDS011;11709;52.420;10.538;2022-08-19T04:23:09;14.03;;;9.80;;
23082;SDS011;11709;52.420;10.538;2022-08-19T04:27:12;15.08;;;9.68;;
23082;SDS011;11709;52.420;10.538;2022-08-19T04:31:16;15.98;;;10.20;;
23082;SDS011;11709;52.420;10.538;2022-08-19T04:35:21;14.40;;;10.60;;
23082;SDS011;11709;52.420;10.538;2022-08-19T04:39:24;12.07;;;9.70;;
23082;SDS011;11709;52.420;10.538;2022-08-19T04:43:30;14.13;;;9.93;;
23082;SDS011;11709;52.420;10.538;2022-08-19T04:47:34;16.82;;;9.80;;
23082;SDS011;11709;52.420;10.538;2022-08-19T04:51:39;15.58;;;10.10;;
23082;SDS011;11709;52.420;10.538;2022-08-19T04:55:43;15.43;;;10.35;;
23082;SDS011;11709;52.420;10.538;2022-08-19T04:59:45;20.75;;;10.60;;
23082;SDS011;11709;52.420;10.538;2022-08-19T05:03:48;15.53;;;10.00;;
23082;SDS011;11709;52.420;10.538;2022-08-19T05:07:51;14.73;;;10.50;;
23082;SDS011;11709;52.420;10.538;2022-08-19T05:11:53;16.30;;;10.00;;
23082;SDS011;11709;52.420;10.538;2022-08-19T05:15:56;15.95;;;10.32;;
23082;SDS011;11709;52.420;10.538;2022-08-19T05:20:00;15.23;;;10.43;;
23082;SDS011;11709;52.420;10.538;2022-08-19T05:24:22;15.70;;;10.38;;
23082;SDS011;11709;52.420;10.538;2022-08-19T05:28:26;17.75;;;10.18;;
23082;SDS011;11709;52.420;10.538;2022-08-19T05:32:28;14.40;;;10.18;;
23082;SDS011;11709;52.420;10.538;2022-08-19T05:36:40;15.03;;;10.65;;
23082;SDS011;11709;52.420;10.538;2022-08-19T05:40:43;16.12;;;10.32;;
23082;SDS011;11709;52.420;10.538;2022-08-19T05:44:48;15.83;;;10.35;;
23082;SDS011;11709;52.420;10.538;2022-08-19T05:48:52;14.80;;;10.72;;
23082;SDS011;11709;52.420;10.538;2022-08-19T05:52:56;235.13;;;211.50;;
23082;SDS011;11709;52.420;10.538;2022-08-19T05:57:00;15.15;;;9.98;;
23082;SDS011;11709;52.420;10.538;2022-08-19T06:01:03;18.52;;;10.40;;
23082;SDS011;11709;52.420;10.538;2022-08-19T06:05:08;18.20;;;10.38;;
23082;SDS011;11709;52.420;10.538;2022-08-19T06:09:11;13.40;;;10.28;;
23082;SDS011;11709;52.420;10.538;2022-08-19T06:13:13;13.43;;;9.65;;
23082;SDS011;11709;52.420;10.538;2022-08-19T06:17:16;16.73;;;10.93;;
23082;SDS011;11709;52.420;10.538;2022-08-19T06:21:23;14.10;;;9.93;;
23082;SDS011;11709;52.420;10.538;2022-08-19T06:25:27;14.58;;;10.28;;
23082;SDS011;11709;52.420;10.538;2022-08-19T06:29:31;13.83;;;9.78;;
23082;SDS011;11709;52.420;10.538;2022-08-19T06:33:34;14.33;;;10.58;;
23082;SDS011;11709;52.420;10.538;2022-08-19T06:37:38;16.00;;;9.40;;
23082;SDS011;11709;52.420;10.538;2022-08-19T06:41:41;16.07;;;10.35;;
23082;SDS011;11709;52.420;10.538;2022-08-19T06:45:45;18.07;;;10.50;;
23082;SDS011;11709;52.420;10.538;2022-08-19T06:49:48;17.82;;;11.25;;
23082;SDS011;11709;52.420;10.538;2022-08-19T06:53:51;14.85;;;9.43;;
23082;SDS011;11709;52.420;10.538;2022-08-19T06:57:54;16.80;;;9.38;;
23082;SDS011;11709;52.420;10.538;2022-08-19T07:01:58;19.55;;;10.10;;
23082;SDS011;11709;52.420;10.538;2022-08-19T07:06:05;13.88;;;9.90;;
23082;SDS011;11709;52.420;10.538;2022-08-19T07:10:09;14.40;;;9.33;;
23082;SDS011;11709;52.420;10.538;2022-08-19T07:14:12;14.10;;;9.03;;
23082;SDS011;11709;52.420;10.538;2022-08-19T07:18:18;14.03;;;9.25;;
23082;SDS011;11709;52.420;10.538;2022-08-19T07:22:22;13.28;;;9.25;;
23082;SDS011;11709;52.420;10.538;2022-08-19T07:26:25;17.48;;;9.18;;
23082;SDS011;11709;52.420;10.538;2022-08-19T07:30:30;17.17;;;8.70;;
23082;SDS011;11709;52.420;10.538;2022-08-19T07:34:33;14.80;;;9.25;;
23082;SDS011;11709;52.420;10.538;2022-08-19T07:38:38;12.33;;;7.95;;
23082;SDS011;11709;52.420;10.538;2022-08-19T07:42:42;11.05;;;7.53;;
23082;SDS011;11709;52.420;10.538;2022-08-19T07:46:46;10.93;;;8.20;;
23082;SDS011;11709;52.420;10.538;2022-08-19T07:50:56;12.73;;;6.72;;
23082;SDS011;11709;52.420;10.538;2022-08-19T07:54:55;9.93;;;7.30;;
23082;SDS011;11709;52.420;10.538;2022-08-19T07:58:58;10.13;;;7.35;;
23082;SDS011;11709;52.420;10.538;2022-08-19T08:03:01;10.80;;;7.12;;
23082;SDS011;11709;52.420;10.538;2022-08-19T08:07:04;10.13;;;6.65;;
23082;SDS011;11709;52.420;10.538;2022-08-19T08:11:26;11.38;;;7.25;;
23082;SDS011;11709;52.420;10.538;2022-08-19T08:15:28;13.98;;;7.22;;
23082;SDS011;11709;52.420;10.538;2022-08-19T08:19:31;11.25;;;6.80;;
23082;SDS011;11709;52.420;10.538;2022-08-19T08:23:34;8.50;;;6.62;;
23082;SDS011;11709;52.420;10.538;2022-08-19T08:27:37;11.38;;;6.83;;
23082;SDS011;11709;52.420;10.538;2022-08-19T08:31:42;10.28;;;6.67;;
23082;SDS011;11709;52.420;10.538;2022-08-19T08:35:45;8.18;;;6.58;;
23082;SDS011;11709;52.420;10.538;2022-08-19T08:39:48;11.55;;;7.25;;
23082;SDS011;11709;52.420;10.538;2022-08-19T08:43:51;8.38;;;6.70;;
23082;SDS011;11709;52.420;10.538;2022-08-19T08:47:55;10.38;;;6.50;;
23082;SDS011;11709;52.420;10.538;2022-08-19T08:52:08;10.15;;;7.03;;
23082;SDS011;11709;52.420;10.538;2022-08-19T08:56:14;7.92;;;6.75;;
23082;SDS011;11709;52.420;10.538;2022-08-19T09:00:19;14.55;;;7.08;;
23082;SDS011;11709;52.420;10.538;2022-08-19T09:04:27;9.48;;;6.35;;
23082;SDS011;11709;52.420;10.538;2022-08-19T09:12:45;10.30;;;6.53;;
23082;SDS011;11709;52.420;10.538;2022-08-19T09:17:03;9.25;;;6.47;;
23082;SDS011;11709;52.420;10.538;2022-08-19T09:21:08;12.00;;;7.67;;
23082;SDS011;11709;52.420;10.538;2022-08-19T09:25:13;10.43;;;6.67;;
23082;SDS011;11709;52.420;10.538;2022-08-19T09:29:16;8.80;;;6.20;;
23082;SDS011;11709;52.420;10.538;2022-08-19T09:33:18;10.53;;;6.95;;
23082;SDS011;11709;52.420;10.538;2022-08-19T09:37:21;9.08;;;6.83;;
23082;SDS011;11709;52.420;10.538;2022-08-19T09:41:24;10.63;;;7.42;;
23082;SDS011;11709;52.420;10.538;2022-08-19T09:45:27;10.63;;;7.33;;
23082;SDS011;11709;52.420;10.538;2022-08-19T09:49:30;11.85;;;7.97;;
23082;SDS011;11709;52.420;10.538;2022-08-19T09:53:32;10.78;;;8.35;;
23082;SDS011;11709;52.420;10.538;2022-08-19T09:57:35;9.80;;;7.83;;
23082;SDS011;11709;52.420;10.538;2022-08-19T10:01:38;12.58;;;7.58;;
23082;SDS011;11709;52.420;10.538;2022-08-19T10:05:40;12.03;;;8.63;;
23082;SDS011;11709;52.420;10.538;2022-08-19T10:09:49;10.75;;;7.90;;
23082;SDS011;11709;52.420;10.538;2022-08-19T10:13:52;11.88;;;8.08;;
23082;SDS011;11709;52.420;10.538;2022-08-19T10:17:55;11.65;;;8.53;;
23082;SDS011;11709;52.420;10.538;2022-08-19T10:22:01;16.27;;;8.30;;
23082;SDS011;11709;52.420;10.538;2022-08-19T10:26:07;14.78;;;9.25;;
23082;SDS011;11709;52.420;10.538;2022-08-19T10:30:10;11.33;;;8.13;;
23082;SDS011;11709;52.420;10.538;2022-08-19T10:34:13;15.00;;;8.70;;
23082;SDS011;11709;52.420;10.538;2022-08-19T10:38:16;10.88;;;7.78;;
23082;SDS011;11709;52.420;10.538;2022-08-19T10:42:19;10.48;;;7.08;;
23082;SDS011;11709;52.420;10.538;2022-08-19T10:46:22;12.80;;;7.97;;
23082;SDS011;11709;52.420;10.538;2022-08-19T10:50:26;9.93;;;7.50;;
23082;SDS011;11709;52.420;10.538;2022-08-19T10:54:46;13.83;;;6.97;;
23082;SDS011;11709;52.420;10.538;2022-08-19T10:59:07;10.60;;;7.92;;
23082;SDS011;11709;52.420;10.538;2022-08-19T11:03:09;12.82;;;8.45;;
23082;SDS011;11709;52.420;10.538;2022-08-19T11:07:12;11.93;;;8.08;;
23082;SDS011;11709;52.420;10.538;2022-08-19T11:11:14;8.98;;;7.42;;
23082;SDS011;11709;52.420;10.538;2022-08-19T11:15:17;10.85;;;8.65;;
23082;SDS011;11709;52.420;10.538;2022-08-19T11:19:19;13.35;;;8.40;;
23082;SDS011;11709;52.420;10.538;2022-08-19T11:23:24;11.70;;;7.95;;
23082;SDS011;11709;52.420;10.538;2022-08-19T11:27:26;9.65;;;8.15;;
23082;SDS011;11709;52.420;10.538;2022-08-19T11:31:30;12.85;;;8.58;;
23082;SDS011;11709;52.420;10.538;2022-08-19T11:35:38;11.95;;;8.50;;
23082;SDS011;11709;52.420;10.538;2022-08-19T11:39:41;9.65;;;7.58;;
23082;SDS011;11709;52.420;10.538;2022-08-19T11:43:44;10.23;;;8.10;;
23082;SDS011;11709;52.420;10.538;2022-08-19T11:47:47;10.50;;;8.08;;
23082;SDS011;11709;52.420;10.538;2022-08-19T11:51:49;13.98;;;8.33;;
23082;SDS011;11709;52.420;10.538;2022-08-19T11:55:52;11.18;;;9.08;;
23082;SDS011;11709;52.420;10.538;2022-08-19T11:59:56;9.40;;;7.45;;
23082;SDS011;11709;52.420;10.538;2022-08-19T12:03:59;9.25;;;6.62;;
23082;SDS011;11709;52.420;10.538;2022-08-19T12:08:02;10.82;;;7.95;;
23082;SDS011;11709;52.420;10.538;2022-08-19T12:12:05;11.57;;;7.35;;
23082;SDS011;11709;52.420;10.538;2022-08-19T12:16:11;10.45;;;7.25;;
23082;SDS011;11709;52.420;10.538;2022-08-19T12:20:15;9.88;;;7.15;;
23082;SDS011;11709;52.420;10.538;2022-08-19T12:24:18;7.53;;;6.58;;
23082;SDS011;11709;52.420;10.538;2022-08-19T12:28:23;8.30;;;7.12;;
23082;SDS011;11709;52.420;10.538;2022-08-19T12:32:26;11.63;;;6.78;;
23082;SDS011;11709;52.420;10.538;2022-08-19T12:36:29;9.98;;;7.75;;
23082;SDS011;11709;52.420;10.538;2022-08-19T12:40:31;9.03;;;7.15;;
23082;SDS011;11709;52.420;10.538;2022-08-19T12:44:34;11.18;;;7.95;;
23082;SDS011;11709;52.420;10.538;2022-08-19T12:48:38;9.85;;;7.22;;
23082;SDS011;11709;52.420;10.538;2022-08-19T12:52:42;9.38;;;7.72;;
23082;SDS011;11709;52.420;10.538;2022-08-19T12:56:45;9.23;;;7.30;;
23082;SDS011;11709;52.420;10.538;2022-08-19T13:00:47;8.30;;;6.90;;
23082;SDS011;11709;52.420;10.538;2022-08-19T13:04:50;7.42;;;6.70;;
23082;SDS011;11709;52.420;10.538;2022-08-19T13:08:53;9.43;;;7.58;;
23082;SDS011;11709;52.420;10.538;2022-08-19T13:12:56;8.10;;;6.55;;
23082;SDS011;11709;52.420;10.538;2022-08-19T13:17:00;9.30;;;6.70;;
23082;SDS011;11709;52.420;10.538;2022-08-19T13:21:07;10.23;;;6.53;;
23082;SDS011;11709;52.420;10.538;2022-08-19T13:25:12;7.05;;;6.35;;
23082;SDS011;11709;52.420;10.538;2022-08-19T13:29:18;8.05;;;6.70;;
23082;SDS011;11709;52.420;10.538;2022-08-19T13:33:38;7.55;;;6.45;;
23082;SDS011;11709;52.420;10.538;2022-08-19T13:37:40;9.73;;;6.45;;
23082;SDS011;11709;52.420;10.538;2022-08-19T13:41:43;8.75;;;7.08;;
23082;SDS011;11709;52.420;10.538;2022-08-19T13:45:49;6.85;;;6.17;;
23082;SDS011;11709;52.420;10.538;2022-08-19T13:49:56;7.05;;;6.35;;
23082;SDS011;11709;52.420;10.538;2022-08-19T13:53:58;8.63;;;6.70;;
23082;SDS011;11709;52.420;10.538;2022-08-19T13:58:01;9.10;;;5.95;;
23082;SDS011;11709;52.420;10.538;2022-08-19T14:02:04;6.97;;;6.22;;
23082;SDS011;11709;52.420;10.538;2022-08-19T14:06:06;10.00;;;6.45;;
23082;SDS011;11709;52.420;10.538;2022-08-19T14:10:09;12.45;;;6.30;;
23082;SDS011;11709;52.420;10.538;2022-08-19T14:14:13;6.50;;;5.80;;
23082;SDS011;11709;52.420;10.538;2022-08-19T14:18:16;7.80;;;6.25;;
23082;SDS011;11709;52.420;10.538;2022-08-19T14:22:19;6.65;;;6.00;;
23082;SDS011;11709;52.420;10.538;2022-08-19T14:26:21;6.75;;;6.05;;
23082;SDS011;11709;52.420;10.538;2022-08-19T14:30:25;6.40;;;5.25;;
23082;SDS011;11709;52.420;10.538;2022-08-19T14:34:30;6.20;;;5.33;;
23082;SDS011;11709;52.420;10.538;2022-08-19T14:38:34;6.40;;;5.90;;
23082;SDS011;11709;52.420;10.538;2022-08-19T14:42:37;6.72;;;5.92;;
23082;SDS011;11709;52.420;10.538;2022-08-19T14:46:40;6.10;;;5.60;;
23082;SDS011;11709;52.420;10.538;2022-08-19T14:50:42;6.50;;;5.55;;
23082;SDS011;11709;52.420;10.538;2022-08-19T14:54:45;8.00;;;5.62;;
23082;SDS011;11709;52.420;10.538;2022-08-19T14:58:47;7.17;;;6.20;;
23082;SDS011;11709;52.420;10.538;2022-08-19T15:02:51;7.08;;;6.47;;
23082;SDS011;11709;52.420;10.538;2022-08-19T15:06:55;6.85;;;6.17;;
23082;SDS011;11709;52.420;10.538;2022-08-19T15:10:58;7.75;;;6.25;;
23082;SDS011;11709;52.420;10.538;2022-08-19T15:15:00;9.13;;;6.60;;
23082;SDS011;11709;52.420;10.538;2022-08-19T15:19:03;6.92;;;6.22;;
23082;SDS011;11709;52.420;10.538;2022-08-19T15:23:06;7.05;;;6.10;;
23082;SDS011;11709;52.420;10.538;2022-08-19T15:27:08;7.62;;;6.22;;
23082;SDS011;11709;52.420;10.538;2022-08-19T15:31:11;5.90;;;5.45;;
23082;SDS011;11709;52.420;10.538;2022-08-19T15:35:14;6.42;;;5.78;;
23082;SDS011;11709;52.420;10.538;2022-08-19T15:39:19;6.78;;;5.80;;
23082;SDS011;11709;52.420;10.538;2022-08-19T15:43:21;6.50;;;5.90;;
23082;SDS011;11709;52.420;10.538;2022-08-19T15:47:24;7.90;;;5.95;;
23082;SDS011;11709;52.420;10.538;2022-08-19T15:51:27;7.40;;;5.60;;
23082;SDS011;11709;52.420;10.538;2022-08-19T15:55:32;6.10;;;5.08;;
23082;SDS011;11709;52.420;10.538;2022-08-19T15:59:37;9.13;;;5.70;;
23082;SDS011;11709;52.420;10.538;2022-08-19T16:03:58;6.15;;;5.58;;
23082;SDS011;11709;52.420;10.538;2022-08-19T16:08:19;7.37;;;6.33;;
23082;SDS011;11709;52.420;10.538;2022-08-19T16:12:21;8.40;;;6.17;;
23082;SDS011;11709;52.420;10.538;2022-08-19T16:16:27;6.45;;;5.85;;
23082;SDS011;11709;52.420;10.538;2022-08-19T16:20:32;6.58;;;5.97;;
23082;SDS011;11709;52.420;10.538;2022-08-19T16:24:34;7.42;;;6.40;;
23082;SDS011;11709;52.420;10.538;2022-08-19T16:28:37;6.60;;;5.97;;
23082;SDS011;11709;52.420;10.538;2022-08-19T16:32:44;8.95;;;5.85;;
23082;SDS011;11709;52.420;10.538;2022-08-19T16:36:46;7.03;;;6.40;;
23082;SDS011;11709;52.420;10.538;2022-08-19T16:40:49;6.67;;;5.97;;
23082;SDS011;11709;52.420;10.538;2022-08-19T16:44:56;6.70;;;6.03;;
23082;SDS011;11709;52.420;10.538;2022-08-19T16:48:59;6.72;;;6.12;;
23082;SDS011;11709;52.420;10.538;2022-08-19T16:53:01;7.65;;;6.95;;
23082;SDS011;11709;52.420;10.538;2022-08-19T16:57:05;9.20;;;6.67;;
23082;SDS011;11709;52.420;10.538;2022-08-19T17:01:08;6.75;;;6.08;;
23082;SDS011;11709;52.420;10.538;2022-08-19T17:05:11;6.75;;;6.10;;
23082;SDS011;11709;52.420;10.538;2022-08-19T17:09:14;749.52;;;683.02;;
23082;SDS011;11709;52.420;10.538;2022-08-19T17:13:18;716.95;;;657.98;;
23082;SDS011;11709;52.420;10.538;2022-08-19T17:17:21;400.10;;;371.93;;
23082;SDS011;11709;52.420;10.538;2022-08-19T17:21:25;726.10;;;666.05;;
23082;SDS011;11709;52.420;10.538;2022-08-19T17:25:30;332.48;;;305.12;;
23082;SDS011;11709;52.420;10.538;2022-08-19T17:29:33;163.95;;;150.78;;
23082;SDS011;11709;52.420;10.538;2022-08-19T17:33:36;674.38;;;619.62;;
23082;SDS011;11709;52.420;10.538;2022-08-19T17:37:38;404.75;;;370.67;;
23082;SDS011;11709;52.420;10.538;2022-08-19T17:41:42;8.50;;;6.80;;
23082;SDS011;11709;52.420;10.538;2022-08-19T17:45:44;6.95;;;6.28;;
23082;SDS011;11709;52.420;10.538;2022-08-19T17:49:47;7.95;;;6.87;;
23082;SDS011;11709;52.420;10.538;2022-08-19T17:53:51;9.53;;;6.83;;
23082;SDS011;11709;52.420;10.538;2022-08-19T17:57:54;7.78;;;6.97;;
23082;SDS011;11709;52.420;10.538;2022-08-19T18:01:57;7.33;;;6.62;;
23082;SDS011;11709;52.420;10.538;2022-08-19T18:06:00;9.43;;;7.17;;
23082;SDS011;11709;52.420;10.538;2022-08-19T18:10:03;11.63;;;7.37;;
23082;SDS011;11709;52.420;10.538;2022-08-19T18:14:06;7.42;;;6.70;;
23082;SDS011;11709;52.420;10.538;2022-08-19T18:18:09;7.80;;;7.03;;
23082;SDS011;11709;52.420;10.538;2022-08-19T18:22:19;9.70;;;7.92;;
23082;SDS011;11709;52.420;10.538;2022-08-19T18:26:26;7.87;;;6.67;;
23082;SDS011;11709;52.420;10.538;2022-08-19T18:30:29;11.40;;;8.45;;
23082;SDS011;11709;52.420;10.538;2022-08-19T18:34:34;10.32;;;8.13;;
23082;SDS011;11709;52.420;10.538;2022-08-19T18:38:37;13.65;;;9.25;;
23082;SDS011;11709;52.420;10.538;2022-08-19T18:42:57;11.55;;;9.08;;
23082;SDS011;11709;52.420;10.538;2022-08-19T18:47:04;14.25;;;8.73;;
23082;SDS011;11709;52.420;10.538;2022-08-19T18:51:25;10.55;;;8.30;;
23082;SDS011;11709;52.420;10.538;2022-08-19T18:55:30;12.33;;;8.75;;
23082;SDS011;11709;52.420;10.538;2022-08-19T18:59:32;11.73;;;8.40;;
23082;SDS011;11709;52.420;10.538;2022-08-19T19:03:36;9.68;;;7.92;;
23082;SDS011;11709;52.420;10.538;2022-08-19T19:07:44;10.38;;;8.35;;
23082;SDS011;11709;52.420;10.538;2022-08-19T19:11:48;10.68;;;8.65;;
23082;SDS011;11709;52.420;10.538;2022-08-19T19:15:52;13.28;;;9.40;;
23082;SDS011;11709;52.420;10.538;2022-08-19T19:19:55;9.00;;;8.00;;
23082;SDS011;11709;52.420;10.538;2022-08-19T19:23:57;10.65;;;8.90;;
23082;SDS011;11709;52.420;10.538;2022-08-19T19:28:00;10.95;;;8.03;;
23082;SDS011;11709;52.420;10.538;2022-08-19T19:32:04;9.53;;;8.53;;
23082;SDS011;11709;52.420;10.538;2022-08-19T19:36:08;10.75;;;8.85;;
23082;SDS011;11709;52.420;10.538;2022-08-19T19:40:10;11.60;;;9.28;;
23082;SDS011;11709;52.420;10.538;2022-08-19T19:44:13;9.85;;;8.85;;
23082;SDS011;11709;52.420;10.538;2022-08-19T19:48:16;10.35;;;8.98;;
23082;SDS011;11709;52.420;10.538;2022-08-19T19:52:19;13.70;;;8.60;;
23082;SDS011;11709;52.420;10.538;2022-08-19T19:56:22;12.93;;;8.48;;
23082;SDS011;11709;52.420;10.538;2022-08-19T20:00:24;10.13;;;8.63;;
23082;SDS011;11709;52.420;10.538;2022-08-19T20:04:27;10.13;;;9.05;;
23082;SDS011;11709;52.420;10.538;2022-08-19T20:08:30;10.75;;;9.53;;
23082;SDS011;11709;52.420;10.538;2022-08-19T20:12:50;12.33;;;8.70;;
23082;SDS011;11709;52.420;10.538;2022-08-19T20:16:54;10.70;;;9.35;;
23082;SDS011;11709;52.420;10.538;2022-08-19T20:20:58;12.78;;;9.50;;
23082;SDS011;11709;52.420;10.538;2022-08-19T20:25:01;14.00;;;9.90;;
23082;SDS011;11709;52.420;10.538;2022-08-19T20:29:03;12.35;;;9.53;;
23082;SDS011;11709;52.420;10.538;2022-08-19T20:33:06;11.83;;;10.23;;
23082;SDS011;11709;52.420;10.538;2022-08-19T20:37:09;10.18;;;9.00;;
23082;SDS011;11709;52.420;10.538;2022-08-19T20:41:11;10.72;;;9.33;;
23082;SDS011;11709;52.420;10.538;2022-08-19T20:45:15;13.08;;;9.90;;
23082;SDS011;11709;52.420;10.538;2022-08-19T20:49:21;11.93;;;10.15;;
23082;SDS011;11709;52.420;10.538;2022-08-19T20:53:24;12.88;;;10.28;;
23082;SDS011;11709;52.420;10.538;2022-08-19T20:57:27;12.23;;;10.88;;
23082;SDS011;11709;52.420;10.538;2022-08-19T21:01:29;11.75;;;10.20;;
23082;SDS011;11709;52.420;10.538;2022-08-19T21:05:32;12.40;;;10.63;;
23082;SDS011;11709;52.420;10.538;2022-08-19T21:09:34;14.10;;;9.85;;
23082;SDS011;11709;52.420;10.538;2022-08-19T21:13:37;11.10;;;9.75;;
23082;SDS011;11709;52.420;10.538;2022-08-19T21:17:40;11.18;;;9.83;;
23082;SDS011;11709;52.420;10.538;2022-08-19T21:21:43;11.43;;;9.73;;
23082;SDS011;11709;52.420;10.538;2022-08-19T21:25:45;13.48;;;10.08;;
23082;SDS011;11709;52.420;10.538;2022-08-19T21:29:48;11.03;;;9.88;;
23082;SDS011;11709;52.420;10.538;2022-08-19T21:33:51;11.00;;;9.90;;
23082;SDS011;11709;52.420;10.538;2022-08-19T21:37:53;12.35;;;9.50;;
23082;SDS011;11709;52.420;10.538;2022-08-19T21:41:57;12.98;;;11.03;;
23082;SDS011;11709;52.420;10.538;2022-08-19T21:45:59;12.00;;;10.45;;
23082;SDS011;11709;52.420;10.538;2022-08-19T21:50:03;13.03;;;11.20;;
23082;SDS011;11709;52.420;10.538;2022-08-19T21:54:06;12.60;;;10.75;;
23082;SDS011;11709;52.420;10.538;2022-08-19T21:58:10;12.58;;;10.58;;
23082;SDS011;11709;52.420;10.538;2022-08-19T22:02:13;14.95;;;10.13;;
23082;SDS011;11709;52.420;10.538;2022-08-19T22:06:17;10.85;;;9.70;;
23082;SDS011;11709;52.420;10.538;2022-08-19T22:10:19;12.05;;;10.45;;
23082;SDS011;11709;52.420;10.538;2022-08-19T22:14:23;14.13;;;11.12;;
23082;SDS011;11709;52.420;10.538;2022-08-19T22:18:26;14.60;;;11.12;;
23082;SDS011;11709;52.420;10.538;2022-08-19T22:22:29;13.45;;;11.83;;
23082;SDS011;11709;52.420;10.538;2022-08-19T22:26:33;17.10;;;12.13;;
23082;SDS011;11709;52.420;10.538;2022-08-19T22:30:36;17.12;;;12.40;;
23082;SDS011;11709;52.420;10.538;2022-08-19T22:34:41;12.70;;;11.43;;
23082;SDS011;11709;52.420;10.538;2022-08-19T22:38:43;15.08;;;11.53;;
23082;SDS011;11709;52.420;10.538;2022-08-19T22:42:46;12.50;;;10.72;;
23082;SDS011;11709;52.420;10.538;2022-08-19T22:46:48;17.27;;;12.20;;
23082;SDS011;11709;52.420;10.538;2022-08-19T22:50:51;13.85;;;12.28;;
23082;SDS011;11709;52.420;10.538;2022-08-19T22:55:11;17.90;;;12.23;;
23082;SDS011;11709;52.420;10.538;2022-08-19T22:59:13;15.45;;;13.10;;
23082;SDS011;11709;52.420;10.538;2022-08-19T23:03:16;15.43;;;12.82;;
23082;SDS011;11709;52.420;10.538;2022-08-19T23:07:19;19.62;;;13.45;;
23082;SDS011;11709;52.420;10.538;2022-08-19T23:11:22;15.53;;;13.22;;
23082;SDS011;11709;52.420;10.538;2022-08-19T23:15:27;15.20;;;12.50;;
23082;SDS011;11709;52.420;10.538;2022-08-19T23:19:30;16.32;;;12.35;;
23082;SDS011;11709;52.420;10.538;2022-08-19T23:23:33;15.10;;;12.00;;
23082;SDS011;11709;52.420;10.538;2022-08-19T23:27:36;15.53;;;12.23;;
23082;SDS011;11709;52.420;10.538;2022-08-19T23:31:57;17.67;;;11.40;;
23082;SDS011;11709;52.420;10.538;2022-08-19T23:36:01;16.02;;;11.45;;
23082;SDS011;11709;52.420;10.538;2022-08-19T23:40:05;14.83;;;11.35;;
23082;SDS011;11709;52.420;10.538;2022-08-19T23:44:09;13.00;;;11.65;;
23082;SDS011;11709;52.420;10.538;2022-08-19T23:48:12;14.80;;;11.40;;
23082;SDS011;11709;52.420;10.538;2022-08-19T23:52:16;15.53;;;10.68;;